createdAt,value
2022-11-21T00:01:28.677Z,95.78
2022-11-21T00:09:51.662Z,95.80
2022-11-21T00:18:15.150Z,95.39
2022-11-21T00:26:38.556Z,95.27
2022-11-21T00:35:01.483Z,95.51
2022-11-21T00:43:24.420Z,94.84
2022-11-21T00:51:47.291Z,95.25
2022-11-21T01:00:10.843Z,94.68
2022-11-21T01:08:40.261Z,94.68
2022-11-21T01:17:03.475Z,94.15
2022-11-21T01:25:26.473Z,93.68
2022-11-21T01:33:50.304Z,93.56
2022-11-21T01:42:13.810Z,93.34
2022-11-21T01:50:37.126Z,92.97
2022-11-21T01:59:02.739Z,92.57
2022-11-21T02:07:28.249Z,92.22
2022-11-21T02:15:51.671Z,93.27
2022-11-21T02:24:26.057Z,93.45
2022-11-21T02:32:49.410Z,93.78
2022-11-21T02:41:18.658Z,93.07
2022-11-21T02:49:51.003Z,92.96
2022-11-21T02:58:14.089Z,92.56
2022-11-21T03:06:37.032Z,93.10
2022-11-21T03:15:00.516Z,92.93
2022-11-21T03:23:23.481Z,92.74
2022-11-21T03:31:46.391Z,92.71
2022-11-21T03:40:10.296Z,93.06
2022-11-21T03:48:33.627Z,92.69
2022-11-21T03:56:56.626Z,92.64
2022-11-21T04:05:19.465Z,92.60
2022-11-21T04:13:42.598Z,92.38
2022-11-21T04:22:05.444Z,92.14
2022-11-21T04:30:29.327Z,91.97
2022-11-21T04:38:52.138Z,92.53
2022-11-21T04:47:16.099Z,92.49
2022-11-21T04:55:39.038Z,92.36
2022-11-21T05:04:01.937Z,92.21
2022-11-21T05:12:43.514Z,92.54
2022-11-21T05:21:06.673Z,92.55
2022-11-21T05:29:29.550Z,92.22
2022-11-21T05:37:56.803Z,91.99
2022-11-21T05:46:22.432Z,91.70
2022-11-21T05:54:46.255Z,91.65
2022-11-21T06:03:28.147Z,91.43
2022-11-21T06:11:51.228Z,91.89
2022-11-21T06:20:14.397Z,91.85
2022-11-21T06:28:39.598Z,92.05
2022-11-21T06:37:02.459Z,91.72
2022-11-21T06:45:25.497Z,91.61
2022-11-21T06:53:55.981Z,92.05
2022-11-21T07:02:19.627Z,91.80
2022-11-21T07:10:57.301Z,91.53
2022-11-21T07:19:25.682Z,92.10
2022-11-21T07:27:48.793Z,92.16
2022-11-21T07:36:12.998Z,92.44
2022-11-21T07:44:35.954Z,92.78
2022-11-21T07:53:00.453Z,92.78
2022-11-21T08:01:23.577Z,92.82
2022-11-21T08:09:47.987Z,93.06
2022-11-21T08:18:15.171Z,93.18
2022-11-21T08:26:38.254Z,93.30
2022-11-21T08:35:01.785Z,92.80
2022-11-21T08:43:24.849Z,93.05
2022-11-21T08:51:51.138Z,93.07
2022-11-21T09:00:15.727Z,93.04
2022-11-21T09:08:40.581Z,92.32
2022-11-21T09:17:22.337Z,92.16
2022-11-21T09:25:46.975Z,91.59
2022-11-21T09:34:10.959Z,91.22
2022-11-21T09:42:36.961Z,90.65
2022-11-21T09:51:12.831Z,89.95
2022-11-21T09:59:37.660Z,89.27
2022-11-21T10:08:13.452Z,88.28
2022-11-21T10:16:48.217Z,87.04
2022-11-21T10:25:26.974Z,86.90
2022-11-21T10:33:53.270Z,85.56
2022-11-21T10:42:29.428Z,84.51
2022-11-21T10:51:13.719Z,82.61
2022-11-21T10:59:37.453Z,81.98
2022-11-21T11:08:05.241Z,84.10
2022-11-21T11:16:30.265Z,85.28
2022-11-21T11:24:57.627Z,85.51
2022-11-21T11:33:50.447Z,85.89
2022-11-21T11:42:40.631Z,85.66
2022-11-21T11:51:10.798Z,85.90
2022-11-21T11:59:40.791Z,85.88
2022-11-21T12:16:56.754Z,79.85
2022-11-21T12:25:30.761Z,68.18
2022-11-21T12:34:32.648Z,67.58
2022-11-21T12:43:25.592Z,69.78
2022-11-21T12:52:23.935Z,71.09
2022-11-21T13:01:03.883Z,74.05
2022-11-21T13:09:33.767Z,74.86
2022-11-21T13:18:05.825Z,76.87
2022-11-21T13:26:50.897Z,78.48
2022-11-21T13:39:05.696Z,81.16
2022-11-21T13:47:56.347Z,82.23
2022-11-21T13:56:56.944Z,83.80
2022-11-21T14:05:32.307Z,85.35
2022-11-21T14:13:55.437Z,86.82
2022-11-21T14:22:37.048Z,87.78
2022-11-21T14:31:07.935Z,88.38
2022-11-21T14:39:39.841Z,89.67
2022-11-21T14:48:12.670Z,89.86
2022-11-21T14:57:20.283Z,89.90
2022-11-21T15:14:42.419Z,90.44
2022-11-21T15:23:05.403Z,91.87
2022-11-21T15:31:27.777Z,91.75
2022-11-21T15:39:50.896Z,93.31
2022-11-21T15:48:12.799Z,93.41
2022-11-21T15:56:34.458Z,93.55
2022-11-21T16:04:56.287Z,93.59
2022-11-21T16:13:20.092Z,93.79
2022-11-21T16:21:43.044Z,94.27
2022-11-21T16:30:05.949Z,94.82
2022-11-21T16:38:29.002Z,94.54
2022-11-21T16:46:53.736Z,94.24
2022-11-21T16:55:15.469Z,94.57
2022-11-21T17:03:38.783Z,94.58
2022-11-21T17:12:00.338Z,94.79
2022-11-21T17:20:21.978Z,95.16
2022-11-21T17:28:46.097Z,95.60
2022-11-21T17:37:08.710Z,95.47
2022-11-21T17:45:30.364Z,95.78
2022-11-21T17:53:52.819Z,95.82
2022-11-21T18:02:14.772Z,96.10
2022-11-21T18:10:43.558Z,96.31
2022-11-21T18:19:06.524Z,96.32
2022-11-21T18:27:28.546Z,96.85
2022-11-21T18:35:50.394Z,97.10
2022-11-21T18:44:20.063Z,97.10
2022-11-21T18:52:46.826Z,97.40
2022-11-21T19:01:18.268Z,97.30
2022-11-21T19:09:39.825Z,97.28
2022-11-21T19:18:05.110Z,97.48
2022-11-21T19:26:28.671Z,97.61
2022-11-21T19:34:52.377Z,97.64
2022-11-21T19:43:14.115Z,97.71
2022-11-21T19:51:41.714Z,97.70
2022-11-21T20:00:05.770Z,97.65
2022-11-21T20:08:31.580Z,97.81
2022-11-21T20:16:55.103Z,97.50
2022-11-21T20:25:17.124Z,97.49
2022-11-21T20:33:50.459Z,97.64
2022-11-21T20:42:12.929Z,97.62
2022-11-21T20:51:29.640Z,97.41
2022-11-21T20:59:16.270Z,97.42
2022-11-21T21:07:38.051Z,97.27
2022-11-21T21:16:10.039Z,97.15
2022-11-21T21:24:31.772Z,97.00
2022-11-21T21:33:28.029Z,97.14
2022-11-21T21:41:49.778Z,97.21
2022-11-21T21:50:15.677Z,97.14
2022-11-21T21:58:39.678Z,97.06
2022-11-21T22:07:02.196Z,97.05
2022-11-21T22:15:23.979Z,96.92
2022-11-21T22:24:09.738Z,97.13
2022-11-21T22:32:28.094Z,97.11
2022-11-21T22:40:49.707Z,97.07
2022-11-21T22:49:11.383Z,97.13
2022-11-21T22:57:34.097Z,97.22
2022-11-21T23:06:00.153Z,97.10
2022-11-21T23:14:21.750Z,96.98
2022-11-21T23:22:43.409Z,96.92
2022-11-21T23:31:05.094Z,96.73
2022-11-21T23:39:27.365Z,96.80
2022-11-21T23:47:49.511Z,96.76
2022-11-21T23:56:11.139Z,96.86
